createdAt,value
2023-02-23T00:01:14.711Z,25.49
2023-02-23T00:03:14.804Z,25.51
2023-02-23T00:05:14.725Z,25.53
2023-02-23T00:07:14.748Z,25.52
2023-02-23T00:09:14.755Z,25.47
2023-02-23T00:11:14.721Z,25.51
2023-02-23T00:13:14.681Z,25.52
2023-02-23T00:15:14.757Z,25.52
2023-02-23T00:17:15.400Z,25.52
2023-02-23T00:19:14.789Z,25.50
2023-02-23T00:21:14.735Z,25.56
2023-02-23T00:23:14.773Z,25.54
2023-02-23T00:25:14.692Z,25.52
2023-02-23T00:27:14.722Z,25.47
2023-02-23T00:29:14.747Z,25.50
2023-02-23T00:31:14.727Z,25.49
2023-02-23T00:33:14.737Z,25.50
2023-02-23T00:35:14.698Z,25.53
2023-02-23T00:37:14.729Z,25.46
2023-02-23T00:39:14.723Z,25.49
2023-02-23T00:41:14.789Z,25.47
2023-02-23T00:43:14.785Z,25.48
2023-02-23T00:45:14.749Z,25.44
2023-02-23T00:47:14.733Z,25.47
2023-02-23T00:49:14.730Z,25.50
2023-02-23T00:51:14.786Z,25.52
2023-02-23T00:53:14.598Z,25.47
2023-02-23T00:55:14.771Z,25.51
2023-02-23T00:57:14.608Z,25.47
2023-02-23T00:59:14.633Z,25.52
2023-02-23T01:01:14.648Z,25.54
2023-02-23T01:03:14.816Z,25.42
2023-02-23T01:05:14.767Z,25.44
2023-02-23T01:07:14.899Z,25.51
2023-02-23T01:09:14.806Z,25.49
2023-02-23T01:11:14.650Z,25.45
2023-02-23T01:13:14.816Z,25.45
2023-02-23T01:15:14.578Z,25.52
2023-02-23T01:17:14.757Z,25.51
2023-02-23T01:19:14.777Z,25.52
2023-02-23T01:21:14.701Z,25.50
2023-02-23T01:23:14.820Z,25.48
2023-02-23T01:25:14.803Z,25.52
2023-02-23T01:27:14.864Z,25.50
2023-02-23T01:29:14.834Z,25.50
2023-02-23T01:31:14.973Z,25.49
2023-02-23T01:33:14.825Z,25.50
2023-02-23T01:35:14.843Z,25.49
2023-02-23T01:37:14.555Z,25.51
2023-02-23T01:39:14.677Z,25.47
2023-02-23T01:41:14.724Z,25.52
2023-02-23T01:43:14.601Z,25.54
2023-02-23T01:45:14.873Z,25.50
2023-02-23T01:47:14.664Z,25.49
2023-02-23T01:49:14.610Z,25.51
2023-02-23T01:51:14.802Z,25.50
2023-02-23T01:53:14.849Z,25.49
2023-02-23T01:55:14.668Z,25.44
2023-02-23T01:57:14.721Z,25.42
2023-02-23T01:59:14.867Z,25.53
2023-02-23T02:01:14.651Z,25.48
2023-02-23T02:03:14.865Z,25.46
2023-02-23T02:05:14.880Z,25.42
2023-02-23T02:07:14.534Z,25.44
2023-02-23T02:09:14.872Z,25.50
2023-02-23T02:11:14.817Z,25.45
2023-02-23T02:13:14.903Z,25.52
2023-02-23T02:15:14.870Z,25.49
2023-02-23T02:17:14.684Z,25.44
2023-02-23T02:19:14.857Z,25.43
2023-02-23T02:21:14.905Z,25.40
2023-02-23T02:23:14.868Z,25.39
2023-02-23T02:25:14.915Z,25.47
2023-02-23T02:27:14.828Z,25.43
2023-02-23T02:29:14.899Z,25.45
2023-02-23T02:31:14.754Z,25.43
2023-02-23T02:33:14.894Z,25.46
2023-02-23T02:35:14.701Z,25.49
2023-02-23T02:37:14.709Z,25.42
2023-02-23T02:39:14.893Z,25.42
2023-02-23T02:41:14.708Z,25.39
2023-02-23T02:43:14.711Z,25.45
2023-02-23T02:45:14.746Z,25.17
2023-02-23T02:47:14.945Z,25.40
2023-02-23T02:49:14.900Z,25.39
2023-02-23T02:51:14.888Z,25.52
2023-02-23T02:53:14.888Z,25.40
2023-02-23T02:55:14.891Z,25.40
2023-02-23T02:57:14.710Z,25.37
2023-02-23T02:59:14.861Z,25.44
2023-02-23T03:01:14.923Z,24.43
2023-02-23T03:03:14.693Z,24.18
2023-02-23T03:05:14.998Z,24.04
2023-02-23T03:07:14.657Z,23.86
2023-02-23T03:09:14.683Z,23.86
2023-02-23T03:11:14.918Z,23.76
2023-02-23T03:13:14.950Z,23.75
2023-02-23T03:15:14.963Z,23.87
2023-02-23T03:17:14.960Z,23.75
2023-02-23T03:19:14.910Z,23.73
2023-02-23T03:21:14.813Z,23.76
2023-02-23T03:23:14.978Z,23.73
2023-02-23T03:25:14.910Z,23.69
2023-02-23T03:27:14.920Z,23.67
2023-02-23T03:29:14.756Z,23.79
2023-02-23T03:31:14.924Z,23.71
2023-02-23T03:33:14.909Z,23.68
2023-02-23T03:35:14.914Z,23.61
2023-02-23T03:37:14.915Z,23.73
2023-02-23T03:39:14.956Z,23.69
2023-02-23T03:41:15.003Z,23.65
2023-02-23T03:43:15.035Z,23.70
2023-02-23T03:45:14.976Z,23.59
2023-02-23T03:47:14.934Z,23.65
2023-02-23T03:49:14.966Z,23.66
2023-02-23T03:51:14.954Z,23.61
2023-02-23T03:53:14.946Z,23.70
2023-02-23T03:55:14.943Z,23.73
2023-02-23T03:57:14.822Z,23.61
2023-02-23T03:59:15.012Z,23.66
2023-02-23T04:01:14.919Z,23.63
2023-02-23T04:03:14.994Z,23.59
2023-02-23T04:05:14.973Z,23.65
2023-02-23T04:07:15.004Z,23.55
2023-02-23T04:09:15.026Z,23.57
2023-02-23T04:11:15.008Z,23.53
2023-02-23T04:13:14.956Z,23.53
2023-02-23T04:15:14.848Z,23.53
2023-02-23T04:17:14.959Z,23.56
2023-02-23T04:19:15.025Z,23.45
2023-02-23T04:21:15.059Z,23.50
2023-02-23T04:23:14.950Z,23.44
2023-02-23T04:25:16.516Z,23.44
2023-02-23T04:27:15.066Z,23.45
2023-02-23T04:29:15.035Z,23.43
2023-02-23T04:31:15.050Z,23.36
2023-02-23T04:33:14.812Z,23.36
2023-02-23T04:35:14.933Z,23.25
2023-02-23T04:37:14.853Z,23.27
2023-02-23T04:39:14.977Z,23.36
2023-02-23T04:41:15.046Z,23.26
2023-02-23T04:43:15.005Z,23.34
2023-02-23T04:45:14.804Z,23.29
2023-02-23T04:47:15.073Z,23.27
2023-02-23T04:49:14.988Z,23.25
2023-02-23T04:51:14.800Z,23.25
2023-02-23T04:53:14.791Z,23.27
2023-02-23T04:55:15.086Z,23.25
2023-02-23T04:57:15.000Z,23.27
2023-02-23T04:59:14.987Z,23.31
2023-02-23T05:01:15.094Z,23.09
2023-02-23T05:03:14.805Z,22.96
2023-02-23T05:05:15.097Z,22.96
2023-02-23T05:07:14.895Z,22.96
2023-02-23T05:09:15.089Z,22.92
2023-02-23T05:11:15.073Z,22.95
2023-02-23T05:13:14.954Z,23.01
2023-02-23T05:15:14.874Z,22.87
2023-02-23T05:17:15.025Z,23.01
2023-02-23T05:19:15.077Z,22.96
2023-02-23T05:21:15.075Z,22.85
2023-02-23T05:23:15.036Z,22.96
2023-02-23T05:25:15.065Z,22.92
2023-02-23T05:27:15.081Z,22.96
2023-02-23T05:29:15.097Z,22.87
2023-02-23T05:31:15.031Z,23.05
2023-02-23T05:33:16.668Z,23.11
2023-02-23T05:35:15.009Z,23.03
2023-02-23T05:37:15.059Z,23.04
2023-02-23T05:39:15.099Z,23.01
2023-02-23T05:41:15.116Z,23.01
2023-02-23T05:43:15.064Z,23.08
2023-02-23T05:45:15.103Z,23.09
2023-02-23T05:47:15.144Z,23.06
2023-02-23T05:49:15.074Z,23.03
2023-02-23T05:51:14.998Z,23.02
2023-02-23T05:53:15.089Z,23.05
2023-02-23T05:55:15.110Z,23.01
2023-02-23T05:57:15.131Z,23.01
2023-02-23T05:59:15.058Z,23.02
2023-02-23T06:01:15.103Z,22.99
2023-02-23T06:03:15.083Z,22.92
2023-02-23T06:05:15.097Z,22.92
2023-02-23T06:07:15.169Z,22.96
2023-02-23T06:09:15.137Z,23.06
2023-02-23T06:11:14.864Z,23.01
2023-02-23T06:13:14.949Z,22.92
2023-02-23T06:15:15.160Z,22.99
2023-02-23T06:17:15.164Z,22.99
2023-02-23T06:19:15.142Z,23.01
2023-02-23T06:21:15.121Z,23.05
2023-02-23T06:23:15.133Z,23.03
2023-02-23T06:25:15.171Z,23.02
2023-02-23T06:27:15.154Z,23.10
2023-02-23T06:29:15.101Z,23.03
2023-02-23T06:31:15.166Z,23.10
2023-02-23T06:33:15.149Z,23.11
2023-02-23T06:35:15.125Z,23.02
2023-02-23T06:37:14.890Z,22.68
2023-02-23T06:39:15.037Z,23.09
2023-02-23T06:41:14.962Z,23.04
2023-02-23T06:43:15.213Z,23.01
2023-02-23T06:45:15.017Z,23.10
2023-02-23T06:47:15.035Z,23.24
2023-02-23T06:49:16.545Z,23.11
2023-02-23T06:51:15.154Z,23.03
2023-02-23T06:53:15.181Z,23.04
2023-02-23T06:55:15.191Z,23.02
2023-02-23T06:57:15.029Z,22.97
2023-02-23T06:59:15.154Z,23.06
2023-02-23T07:01:15.140Z,23.11
2023-02-23T07:03:15.122Z,23.02
2023-02-23T07:05:15.219Z,23.13
2023-02-23T07:07:23.942Z,23.13
2023-02-23T07:09:15.208Z,23.09
2023-02-23T07:11:15.161Z,23.11
2023-02-23T07:13:15.169Z,22.99
2023-02-23T07:15:15.143Z,23.11
2023-02-23T07:17:14.866Z,23.08
2023-02-23T07:19:15.193Z,23.11
2023-02-23T07:21:15.287Z,23.10
2023-02-23T07:23:15.202Z,23.12
2023-02-23T07:25:15.188Z,23.17
2023-02-23T07:27:15.141Z,23.16
2023-02-23T07:29:15.212Z,23.03
2023-02-23T07:31:15.073Z,23.18
2023-02-23T07:33:15.203Z,23.12
2023-02-23T07:35:15.211Z,23.15
2023-02-23T07:37:15.245Z,23.19
2023-02-23T07:39:15.214Z,23.19
2023-02-23T07:41:15.228Z,23.25
2023-02-23T07:43:15.223Z,23.24
2023-02-23T07:45:14.966Z,23.15
2023-02-23T07:47:15.196Z,23.23
2023-02-23T07:49:15.069Z,23.26
2023-02-23T07:51:15.257Z,23.16
2023-02-23T07:53:15.038Z,23.16
2023-02-23T07:55:15.240Z,23.19
2023-02-23T07:57:15.258Z,23.25
2023-02-23T07:59:15.251Z,23.17
2023-02-23T08:01:15.288Z,23.17
2023-02-23T08:03:15.197Z,23.27
2023-02-23T08:05:15.001Z,23.25
2023-02-23T08:07:15.178Z,23.25
2023-02-23T08:09:15.267Z,23.26
2023-02-23T08:11:15.284Z,23.23
2023-02-23T08:13:15.019Z,23.29
2023-02-23T08:15:14.943Z,23.19
2023-02-23T08:17:15.219Z,23.25
2023-02-23T08:19:15.257Z,23.25
2023-02-23T08:21:15.269Z,23.27
2023-02-23T08:23:15.264Z,22.02
2023-02-23T08:25:15.101Z,23.31
2023-02-23T08:27:15.103Z,23.25
2023-02-23T08:29:15.223Z,23.25
2023-02-23T08:31:17.674Z,23.26
2023-02-23T08:33:15.234Z,23.24
2023-02-23T08:35:15.105Z,23.31
2023-02-23T08:37:15.212Z,22.99
2023-02-23T08:39:15.163Z,23.25
2023-02-23T08:41:15.045Z,23.36
2023-02-23T08:43:16.328Z,23.34
2023-02-23T08:45:15.305Z,23.30
2023-02-23T08:47:15.009Z,23.36
2023-02-23T08:49:14.997Z,23.36
2023-02-23T08:51:15.290Z,23.48
2023-02-23T08:53:15.159Z,23.49
2023-02-23T08:55:15.236Z,23.52
2023-02-23T08:57:15.031Z,23.49
2023-02-23T08:59:15.274Z,23.59
2023-02-23T09:01:15.295Z,23.59
2023-02-23T09:03:15.170Z,23.70
2023-02-23T09:05:15.184Z,23.73
2023-02-23T09:07:15.115Z,23.83
2023-02-23T09:09:15.344Z,23.91
2023-02-23T09:11:15.336Z,23.83
2023-02-23T09:13:15.326Z,23.89
2023-02-23T09:15:15.133Z,23.94
2023-02-23T09:17:17.767Z,24.00
2023-02-23T09:19:15.077Z,24.05
2023-02-23T09:21:15.355Z,24.14
2023-02-23T09:23:15.048Z,24.10
2023-02-23T09:25:15.310Z,24.09
2023-02-23T09:27:14.940Z,24.00
2023-02-23T09:29:15.352Z,23.95
2023-02-23T09:31:15.233Z,23.81
2023-02-23T09:33:15.350Z,23.81
2023-02-23T09:35:15.382Z,23.79
2023-02-23T09:37:15.363Z,23.79
2023-02-23T09:39:15.255Z,23.74
2023-02-23T09:41:15.148Z,23.84
2023-02-23T09:43:15.382Z,23.81
2023-02-23T09:45:15.214Z,23.96
2023-02-23T09:47:15.060Z,23.79
2023-02-23T09:49:15.295Z,23.84
2023-02-23T09:51:15.350Z,23.70
2023-02-23T09:53:15.364Z,23.66
2023-02-23T09:55:15.244Z,23.61
2023-02-23T09:57:15.419Z,23.39
2023-02-23T09:59:15.193Z,23.66
2023-02-23T10:01:15.343Z,23.66
2023-02-23T10:03:15.331Z,23.75
2023-02-23T10:05:15.412Z,23.86
2023-02-23T10:07:15.300Z,23.93
2023-02-23T10:09:15.154Z,24.00
2023-02-23T10:11:15.197Z,24.09
2023-02-23T10:13:15.402Z,24.05
2023-02-23T10:15:15.098Z,24.25
2023-02-23T10:17:15.431Z,24.34
2023-02-23T10:19:15.243Z,24.39
2023-02-23T10:21:15.365Z,24.44
2023-02-23T10:23:15.341Z,24.39
2023-02-23T10:25:15.382Z,24.34
2023-02-23T10:27:15.126Z,24.20
2023-02-23T10:29:15.176Z,24.35
2023-02-23T10:31:15.881Z,24.28
2023-02-23T10:33:15.480Z,24.39
2023-02-23T10:35:15.262Z,24.44
2023-02-23T10:37:15.157Z,24.43
2023-02-23T10:39:15.406Z,24.52
2023-02-23T10:41:15.310Z,24.38
2023-02-23T10:43:15.154Z,24.38
2023-02-23T10:45:15.390Z,24.34
2023-02-23T10:47:15.413Z,24.28
2023-02-23T10:49:15.416Z,24.24
2023-02-23T10:51:15.254Z,24.38
2023-02-23T10:53:15.371Z,24.48
2023-02-23T10:55:15.513Z,24.60
2023-02-23T10:57:15.227Z,24.50
2023-02-23T10:59:16.060Z,24.55
2023-02-23T11:01:15.723Z,24.52
2023-02-23T11:03:15.576Z,24.41
2023-02-23T11:05:15.390Z,24.38
2023-02-23T11:07:15.420Z,24.48
2023-02-23T11:09:15.403Z,24.39
2023-02-23T11:11:15.847Z,24.55
2023-02-23T11:13:15.445Z,24.52
2023-02-23T11:15:15.219Z,24.44
2023-02-23T11:17:15.417Z,24.38
2023-02-23T11:19:15.446Z,24.36
2023-02-23T11:21:15.464Z,24.35
2023-02-23T11:23:15.333Z,24.34
2023-02-23T11:25:15.470Z,24.21
2023-02-23T11:27:15.484Z,23.96
2023-02-23T11:29:15.485Z,24.36
2023-02-23T11:31:15.303Z,24.44
2023-02-23T11:33:15.181Z,24.66
2023-02-23T11:35:15.279Z,24.74
2023-02-23T11:37:15.449Z,24.92
2023-02-23T11:39:15.412Z,25.01
2023-02-23T11:41:15.491Z,25.05
2023-02-23T11:43:15.493Z,24.95
2023-02-23T11:45:15.408Z,24.82
2023-02-23T11:47:15.375Z,24.85
2023-02-23T11:49:15.431Z,24.75
2023-02-23T11:51:15.476Z,24.82
2023-02-23T11:53:15.379Z,24.74
2023-02-23T11:55:15.333Z,24.75
2023-02-23T11:57:15.264Z,24.70
2023-02-23T11:59:15.312Z,24.65
2023-02-23T12:01:15.254Z,24.61
2023-02-23T12:03:15.426Z,24.66
2023-02-23T12:05:15.520Z,24.61
2023-02-23T12:07:15.467Z,24.66
2023-02-23T12:09:15.446Z,24.67
2023-02-23T12:11:15.335Z,24.41
2023-02-23T12:13:15.487Z,24.46
2023-02-23T12:15:15.248Z,24.47
2023-02-23T12:17:15.510Z,24.53
2023-02-23T12:19:15.335Z,24.53
2023-02-23T12:21:15.299Z,24.66
2023-02-23T12:23:15.493Z,24.82
2023-02-23T12:25:15.557Z,24.75
2023-02-23T12:27:15.532Z,24.59
2023-02-23T12:29:16.576Z,24.54
2023-02-23T12:31:15.575Z,25.18
2023-02-23T12:33:15.492Z,25.50
2023-02-23T12:35:15.270Z,25.55
2023-02-23T12:37:15.491Z,25.72
2023-02-23T12:39:15.286Z,26.08
2023-02-23T12:41:15.281Z,25.10
2023-02-23T12:43:15.532Z,24.97
2023-02-23T12:45:15.535Z,26.78
2023-02-23T12:47:15.512Z,26.57
2023-02-23T12:49:15.550Z,25.09
2023-02-23T12:51:16.304Z,24.95
2023-02-23T12:53:15.570Z,26.04
2023-02-23T12:55:15.337Z,25.60
2023-02-23T12:57:15.413Z,25.95
2023-02-23T12:59:15.574Z,25.13
2023-02-23T13:01:15.612Z,25.14
2023-02-23T13:03:15.541Z,25.51
2023-02-23T13:05:15.562Z,24.90
2023-02-23T13:07:16.034Z,24.94
2023-02-23T13:09:15.364Z,25.08
2023-02-23T13:11:15.519Z,25.05
2023-02-23T13:13:15.605Z,25.03
2023-02-23T13:15:15.599Z,25.07
2023-02-23T13:17:15.321Z,25.11
2023-02-23T13:19:15.355Z,24.58
2023-02-23T13:21:15.549Z,26.82
2023-02-23T13:23:15.309Z,26.77
2023-02-23T13:25:15.576Z,26.34
2023-02-23T13:27:15.505Z,25.15
2023-02-23T13:29:15.536Z,25.32
2023-02-23T13:31:15.629Z,24.97
2023-02-23T13:33:15.390Z,24.95
2023-02-23T13:35:18.293Z,25.05
2023-02-23T13:37:15.403Z,25.46
2023-02-23T13:39:19.116Z,24.97
2023-02-23T13:41:15.572Z,24.95
2023-02-23T13:43:15.587Z,25.05
2023-02-23T13:45:15.554Z,25.11
2023-02-23T13:47:15.556Z,25.22
2023-02-23T13:49:15.556Z,25.52
2023-02-23T13:51:15.589Z,25.29
2023-02-23T13:53:15.605Z,25.05
2023-02-23T13:55:15.419Z,24.96
2023-02-23T13:57:15.558Z,24.97
2023-02-23T13:59:15.390Z,25.08
2023-02-23T14:01:15.640Z,25.09
2023-02-23T14:03:15.623Z,24.99
2023-02-23T14:05:15.342Z,25.81
2023-02-23T14:07:15.623Z,25.37
2023-02-23T14:09:15.633Z,24.93
2023-02-23T14:11:15.649Z,25.03
2023-02-23T14:13:15.353Z,24.94
2023-02-23T14:15:15.630Z,24.95
2023-02-23T14:17:15.658Z,24.96
2023-02-23T14:19:15.426Z,24.92
2023-02-23T14:21:15.668Z,24.95
2023-02-23T14:23:15.722Z,24.95
2023-02-23T14:25:15.439Z,25.05
2023-02-23T14:27:17.037Z,25.06
2023-02-23T14:29:15.614Z,25.12
2023-02-23T14:31:15.678Z,25.15
2023-02-23T14:33:21.545Z,25.14
2023-02-23T14:35:15.597Z,25.23
2023-02-23T14:37:15.680Z,25.09
2023-02-23T14:39:15.668Z,25.21
2023-02-23T14:41:15.416Z,25.23
2023-02-23T14:43:15.598Z,25.19
2023-02-23T14:45:15.515Z,25.21
2023-02-23T14:47:15.663Z,25.23
2023-02-23T14:49:15.655Z,25.14
2023-02-23T14:51:16.765Z,25.09
2023-02-23T14:53:15.422Z,25.12
2023-02-23T14:55:15.384Z,24.95
2023-02-23T14:57:15.452Z,24.90
2023-02-23T14:59:15.367Z,24.80
2023-02-23T15:01:17.013Z,24.55
2023-02-23T15:03:15.682Z,24.43
2023-02-23T15:05:15.718Z,24.25
2023-02-23T15:07:16.731Z,24.14
2023-02-23T15:09:15.695Z,24.10
2023-02-23T15:11:15.420Z,24.09
2023-02-23T15:13:15.531Z,23.97
2023-02-23T15:15:15.652Z,23.96
2023-02-23T15:17:15.680Z,23.96
2023-02-23T15:19:15.450Z,23.86
2023-02-23T15:21:15.441Z,23.87
2023-02-23T15:23:15.670Z,23.81
2023-02-23T15:25:15.552Z,23.80
2023-02-23T15:27:15.549Z,23.81
2023-02-23T15:29:15.637Z,23.81
2023-02-23T15:31:15.659Z,23.77
2023-02-23T15:33:15.416Z,23.82
2023-02-23T15:35:15.719Z,23.72
2023-02-23T15:37:15.667Z,23.73
2023-02-23T15:39:15.679Z,23.70
2023-02-23T15:41:15.535Z,23.81
2023-02-23T15:43:15.680Z,23.81
2023-02-23T15:45:15.436Z,23.73
2023-02-23T15:47:15.549Z,23.73
2023-02-23T15:49:15.712Z,23.50
2023-02-23T15:51:15.663Z,23.72
2023-02-23T15:53:15.503Z,23.76
2023-02-23T15:55:15.460Z,23.65
2023-02-23T15:57:15.432Z,23.65
2023-02-23T15:59:15.922Z,23.58
2023-02-23T16:01:15.781Z,23.68
2023-02-23T16:03:15.842Z,23.58
2023-02-23T16:05:15.473Z,23.69
2023-02-23T16:07:15.496Z,23.53
2023-02-23T16:09:15.737Z,23.57
2023-02-23T16:11:15.579Z,23.55
2023-02-23T16:13:15.517Z,23.54
2023-02-23T16:15:15.522Z,23.62
2023-02-23T16:17:15.852Z,23.66
2023-02-23T16:19:15.470Z,23.63
2023-02-23T16:21:15.773Z,23.68
2023-02-23T16:23:17.737Z,23.63
2023-02-23T16:25:15.537Z,23.56
2023-02-23T16:27:15.758Z,23.53
2023-02-23T16:29:15.748Z,23.56
2023-02-23T16:31:15.619Z,23.53
2023-02-23T16:33:15.724Z,23.58
2023-02-23T16:35:15.521Z,23.57
2023-02-23T16:37:15.834Z,23.48
2023-02-23T16:39:15.599Z,23.54
2023-02-23T16:41:15.512Z,23.56
2023-02-23T16:43:15.581Z,23.41
2023-02-23T16:45:15.594Z,23.39
2023-02-23T16:47:15.749Z,23.41
2023-02-23T16:49:15.796Z,23.40
2023-02-23T16:51:15.472Z,23.42
2023-02-23T16:53:15.786Z,23.39
2023-02-23T16:55:15.773Z,23.36
2023-02-23T16:57:15.639Z,23.43
2023-02-23T16:59:15.785Z,23.30
2023-02-23T17:01:17.943Z,23.28
2023-02-23T17:03:15.724Z,23.34
2023-02-23T17:05:15.654Z,23.33
2023-02-23T17:07:15.773Z,23.36
2023-02-23T17:09:15.807Z,23.27
2023-02-23T17:11:15.804Z,23.30
2023-02-23T17:13:15.824Z,23.31
2023-02-23T17:15:15.613Z,23.33
2023-02-23T17:17:15.774Z,23.26
2023-02-23T17:19:15.648Z,23.28
2023-02-23T17:21:15.858Z,23.29
2023-02-23T17:23:15.684Z,23.40
2023-02-23T17:25:15.850Z,23.34
2023-02-23T17:27:15.530Z,23.33
2023-02-23T17:29:15.794Z,23.34
2023-02-23T17:31:15.896Z,23.41
2023-02-23T17:33:16.018Z,23.34
2023-02-23T17:35:15.574Z,23.31
2023-02-23T17:37:15.682Z,23.26
2023-02-23T17:39:15.860Z,23.31
2023-02-23T17:41:15.856Z,23.28
2023-02-23T17:43:15.656Z,23.34
2023-02-23T17:45:15.800Z,23.31
2023-02-23T17:47:15.812Z,23.39
2023-02-23T17:49:15.837Z,23.33
2023-02-23T17:51:15.584Z,23.25
2023-02-23T17:53:15.500Z,23.29
2023-02-23T17:55:15.699Z,23.25
2023-02-23T17:57:15.650Z,23.24
2023-02-23T17:59:15.619Z,23.25
2023-02-23T18:01:15.887Z,23.25
2023-02-23T18:03:15.727Z,23.20
2023-02-23T18:05:15.608Z,23.25
2023-02-23T18:07:15.863Z,23.25
2023-02-23T18:09:15.828Z,22.87
2023-02-23T18:11:15.851Z,23.24
2023-02-23T18:13:15.875Z,23.27
2023-02-23T18:15:15.879Z,23.25
2023-02-23T18:17:15.638Z,23.22
2023-02-23T18:19:15.870Z,23.24
2023-02-23T18:21:15.774Z,23.24
2023-02-23T18:23:15.878Z,23.34
2023-02-23T18:25:16.071Z,23.29
2023-02-23T18:27:15.590Z,23.36
2023-02-23T18:29:15.882Z,23.26
2023-02-23T18:31:15.869Z,23.27
2023-02-23T18:33:15.918Z,23.28
2023-02-23T18:35:15.884Z,23.27
2023-02-23T18:37:15.721Z,23.26
2023-02-23T18:39:15.897Z,23.25
2023-02-23T18:41:15.895Z,23.31
2023-02-23T18:43:15.919Z,23.29
2023-02-23T18:45:15.783Z,23.31
2023-02-23T18:47:15.713Z,23.20
2023-02-23T18:49:15.824Z,23.30
2023-02-23T18:51:15.849Z,23.22
2023-02-23T18:53:15.932Z,23.25
2023-02-23T18:55:15.651Z,23.25
2023-02-23T18:57:15.909Z,23.27
2023-02-23T18:59:15.918Z,23.20
2023-02-23T19:01:15.775Z,26.02
2023-02-23T19:03:15.921Z,27.02
2023-02-23T19:05:15.833Z,27.00
2023-02-23T19:07:15.932Z,27.06
2023-02-23T19:09:15.898Z,27.08
2023-02-23T19:11:15.935Z,27.16
2023-02-23T19:13:15.712Z,27.16
2023-02-23T19:15:15.939Z,27.06
2023-02-23T19:17:15.967Z,27.13
2023-02-23T19:19:15.926Z,27.10
2023-02-23T19:21:15.915Z,27.10
2023-02-23T19:23:15.722Z,27.14
2023-02-23T19:25:15.699Z,27.12
2023-02-23T19:27:15.898Z,27.13
2023-02-23T19:29:15.685Z,27.08
2023-02-23T19:31:15.873Z,27.12
2023-02-23T19:33:16.104Z,27.13
2023-02-23T19:35:15.933Z,27.12
2023-02-23T19:37:15.796Z,27.16
2023-02-23T19:39:15.845Z,27.16
2023-02-23T19:41:15.665Z,27.11
2023-02-23T19:43:15.764Z,27.22
2023-02-23T19:45:15.946Z,27.19
2023-02-23T19:47:15.982Z,27.16
2023-02-23T19:49:15.712Z,27.16
2023-02-23T19:51:15.801Z,27.16
2023-02-23T19:53:15.922Z,27.16
2023-02-23T19:55:16.003Z,27.14
2023-02-23T19:57:15.988Z,27.16
2023-02-23T19:59:15.937Z,25.53
2023-02-23T20:01:15.945Z,25.49
2023-02-23T20:03:15.849Z,25.56
2023-02-23T20:05:15.931Z,25.55
2023-02-23T20:07:15.776Z,25.52
2023-02-23T20:09:15.973Z,25.56
2023-02-23T20:11:15.931Z,25.50
2023-02-23T20:13:16.014Z,25.53
2023-02-23T20:15:15.849Z,25.53
2023-02-23T20:17:15.997Z,25.52
2023-02-23T20:19:15.982Z,25.54
2023-02-23T20:21:15.871Z,25.51
2023-02-23T20:23:16.035Z,25.52
2023-02-23T20:25:16.024Z,25.52
2023-02-23T20:27:16.008Z,25.49
2023-02-23T20:29:18.034Z,25.58
2023-02-23T20:31:16.084Z,25.53
2023-02-23T20:33:15.999Z,25.52
2023-02-23T20:35:15.844Z,25.52
2023-02-23T20:37:16.023Z,25.58
2023-02-23T20:39:15.756Z,25.52
2023-02-23T20:41:15.841Z,25.52
2023-02-23T20:43:16.029Z,25.50
2023-02-23T20:45:15.763Z,25.52
2023-02-23T20:47:16.029Z,25.52
2023-02-23T20:49:15.835Z,25.52
2023-02-23T20:51:16.012Z,25.52
2023-02-23T20:53:16.018Z,25.52
2023-02-23T20:55:15.808Z,25.53
2023-02-23T20:57:16.070Z,25.47
2023-02-23T20:59:16.054Z,25.62
2023-02-23T21:01:16.159Z,25.47
2023-02-23T21:03:16.038Z,25.58
2023-02-23T21:05:16.070Z,25.52
2023-02-23T21:07:15.890Z,25.53
2023-02-23T21:09:16.007Z,25.58
2023-02-23T21:11:16.061Z,25.52
2023-02-23T21:13:15.809Z,25.52
2023-02-23T21:15:15.989Z,25.52
2023-02-23T21:17:16.015Z,25.52
2023-02-23T21:19:16.390Z,25.52
2023-02-23T21:21:16.086Z,25.52
2023-02-23T21:23:16.037Z,25.47
2023-02-23T21:25:16.035Z,25.48
2023-02-23T21:27:16.092Z,25.52
2023-02-23T21:29:16.076Z,25.51
2023-02-23T21:31:15.921Z,25.52
2023-02-23T21:33:16.071Z,25.47
2023-02-23T21:35:16.111Z,25.51
2023-02-23T21:37:15.903Z,25.53
2023-02-23T21:39:16.076Z,25.56
2023-02-23T21:41:16.095Z,25.50
2023-02-23T21:43:15.884Z,25.52
2023-02-23T21:45:16.114Z,25.58
2023-02-23T21:47:16.109Z,25.53
2023-02-23T21:49:16.100Z,25.52
2023-02-23T21:51:15.856Z,25.50
2023-02-23T21:53:16.126Z,25.58
2023-02-23T21:55:21.155Z,25.60
2023-02-23T21:57:15.869Z,25.52
2023-02-23T21:59:16.060Z,25.60
2023-02-23T22:01:15.915Z,25.52
2023-02-23T22:03:16.136Z,25.48
2023-02-23T22:05:16.069Z,25.60
2023-02-23T22:07:15.851Z,25.52
2023-02-23T22:09:16.166Z,25.54
2023-02-23T22:11:15.931Z,25.52
2023-02-23T22:13:15.947Z,25.52
2023-02-23T22:15:16.133Z,25.52
2023-02-23T22:17:16.074Z,25.58
2023-02-23T22:19:15.923Z,25.52
2023-02-23T22:21:16.166Z,25.52
2023-02-23T22:23:16.148Z,25.49
2023-02-23T22:25:16.135Z,25.60
2023-02-23T22:27:16.135Z,25.58
2023-02-23T22:29:16.111Z,25.52
2023-02-23T22:31:16.181Z,25.47
2023-02-23T22:33:16.120Z,25.53
2023-02-23T22:35:15.891Z,25.52
2023-02-23T22:37:16.141Z,25.52
2023-02-23T22:39:15.902Z,25.52
2023-02-23T22:41:16.211Z,25.56
2023-02-23T22:43:15.885Z,25.52
2023-02-23T22:45:16.095Z,25.54
2023-02-23T22:47:15.950Z,25.62
2023-02-23T22:49:16.077Z,25.52
2023-02-23T22:51:15.954Z,25.53
2023-02-23T22:53:16.169Z,25.53
2023-02-23T22:55:16.118Z,25.52
2023-02-23T22:57:16.164Z,25.52
2023-02-23T22:59:16.011Z,25.60
2023-02-23T23:01:16.021Z,25.52
2023-02-23T23:03:16.246Z,25.52
2023-02-23T23:05:16.198Z,25.52
2023-02-23T23:07:15.927Z,25.57
2023-02-23T23:09:16.132Z,25.48
2023-02-23T23:11:16.129Z,25.52
2023-02-23T23:13:16.214Z,25.52
2023-02-23T23:15:16.222Z,25.53
2023-02-23T23:17:16.071Z,25.54
2023-02-23T23:19:15.876Z,25.52
2023-02-23T23:21:16.186Z,25.52
2023-02-23T23:23:16.006Z,25.47
2023-02-23T23:25:15.910Z,25.51
2023-02-23T23:27:16.176Z,25.51
2023-02-23T23:29:16.196Z,25.50
2023-02-23T23:31:16.257Z,25.56
2023-02-23T23:33:15.963Z,25.52
2023-02-23T23:35:16.220Z,25.52
2023-02-23T23:37:15.990Z,25.49
2023-02-23T23:39:16.479Z,25.57
2023-02-23T23:41:16.002Z,25.52
2023-02-23T23:43:15.951Z,25.51
2023-02-23T23:45:16.220Z,25.52
2023-02-23T23:47:16.174Z,25.52
2023-02-23T23:49:16.106Z,25.52
2023-02-23T23:51:15.996Z,25.53
2023-02-23T23:53:16.238Z,25.52
2023-02-23T23:55:16.239Z,25.52
2023-02-23T23:57:16.225Z,25.52
2023-02-23T23:59:15.959Z,25.50
